createdAt,value
2023-05-05T00:01:33.132Z,100925.56
2023-05-05T00:04:36.169Z,100909.84
2023-05-05T00:07:38.447Z,100920.50
2023-05-05T00:10:42.586Z,100921.53
2023-05-05T00:13:44.912Z,100909.62
2023-05-05T00:16:47.648Z,100913.19
2023-05-05T00:19:50.063Z,100900.84
2023-05-05T00:22:52.695Z,100910.41
2023-05-05T00:25:55.059Z,100925.31
2023-05-05T00:28:57.654Z,100906.56
2023-05-05T00:32:00.145Z,100905.75
2023-05-05T00:35:02.920Z,100916.94
2023-05-05T00:38:05.334Z,100915.91
2023-05-05T00:41:08.066Z,100912.38
2023-05-05T00:44:10.591Z,100894.97
2023-05-05T00:47:14.276Z,100906.69
2023-05-05T00:50:28.022Z,100904.41
2023-05-05T00:53:31.188Z,100907.91
2023-05-05T00:56:33.629Z,100913.50
2023-05-05T00:59:38.189Z,100890.00
2023-05-05T01:02:41.438Z,100904.91
2023-05-05T01:06:06.554Z,100902.88
2023-05-05T01:09:35.075Z,100886.47
2023-05-05T01:13:33.591Z,100887.28
2023-05-05T01:16:41.525Z,100900.78
2023-05-05T01:20:20.816Z,100894.16
2023-05-05T01:24:04.783Z,100889.59
2023-05-05T01:27:30.441Z,100892.28
2023-05-05T01:30:54.698Z,100888.44
2023-05-05T01:34:06.146Z,100900.12
2023-05-05T01:37:15.141Z,100887.28
2023-05-05T01:40:23.005Z,100893.81
2023-05-05T01:43:29.609Z,100890.81
2023-05-05T01:46:35.455Z,100893.72
2023-05-05T01:49:38.611Z,100874.03
2023-05-05T01:52:42.494Z,100890.63
2023-05-05T01:55:46.856Z,100877.87
2023-05-05T01:58:51.843Z,100887.72
2023-05-05T02:01:56.416Z,100899.62
2023-05-05T02:05:00.233Z,100889.78
2023-05-05T02:08:04.555Z,100890.63
2023-05-05T02:11:10.052Z,100881.50
2023-05-05T02:14:14.367Z,100876.84
2023-05-05T02:17:18.649Z,100880.66
2023-05-05T02:20:22.517Z,100867.22
2023-05-05T02:23:25.767Z,100888.66
2023-05-05T02:26:31.274Z,100889.59
2023-05-05T02:29:44.789Z,100886.78
2023-05-05T02:33:03.420Z,100871.22
2023-05-05T02:36:12.471Z,100871.56
2023-05-05T02:39:26.131Z,100881.91
2023-05-05T02:42:39.391Z,100868.03
2023-05-05T02:45:41.957Z,100884.37
2023-05-05T02:48:45.085Z,100889.03
2023-05-05T02:51:47.580Z,100886.72
2023-05-05T02:54:51.667Z,100879.81
2023-05-05T02:58:03.861Z,100859.69
2023-05-05T03:01:22.967Z,100874.28
2023-05-05T03:04:29.496Z,100882.66
2023-05-05T03:07:40.986Z,100882.75
2023-05-05T03:10:52.705Z,100880.09
2023-05-05T03:14:13.790Z,100883.72
2023-05-05T03:17:18.393Z,100873.06
2023-05-05T03:20:22.252Z,100884.13
2023-05-05T03:23:25.115Z,100879.38
2023-05-05T03:26:28.264Z,100878.78
2023-05-05T03:29:30.678Z,100862.47
2023-05-05T03:32:34.308Z,100886.09
2023-05-05T03:35:36.731Z,100883.06
2023-05-05T03:38:42.015Z,100881.19
2023-05-05T03:41:44.812Z,100864.66
2023-05-05T03:44:48.027Z,100884.66
2023-05-05T03:47:50.891Z,100868.06
2023-05-05T03:50:54.117Z,100884.81
2023-05-05T03:53:56.999Z,100889.56
2023-05-05T03:57:00.004Z,100896.72
2023-05-05T04:00:02.922Z,100900.72
2023-05-05T04:03:06.050Z,100907.28
2023-05-05T04:06:08.911Z,100901.16
2023-05-05T04:09:12.184Z,100898.37
2023-05-05T04:12:14.955Z,100900.03
2023-05-05T04:15:17.547Z,100895.66
2023-05-05T04:18:20.762Z,100891.59
2023-05-05T04:21:23.366Z,100911.63
2023-05-05T04:24:26.400Z,100903.81
2023-05-05T04:27:30.334Z,100897.03
2023-05-05T04:30:33.294Z,100902.25
2023-05-05T04:33:35.774Z,100888.34
2023-05-05T04:36:38.598Z,100908.84
2023-05-05T04:39:41.640Z,100915.28
2023-05-05T04:42:44.489Z,100904.50
2023-05-05T04:45:56.147Z,100915.88
2023-05-05T04:48:59.385Z,100925.19
2023-05-05T04:52:02.278Z,100927.88
2023-05-05T04:55:05.494Z,100929.31
2023-05-05T04:58:08.727Z,100930.22
2023-05-05T05:01:11.411Z,100915.16
2023-05-05T05:04:18.357Z,100920.94
2023-05-05T05:07:21.400Z,100941.25
2023-05-05T05:10:23.780Z,100936.62
2023-05-05T05:13:26.471Z,100921.69
2023-05-05T05:16:28.946Z,100936.22
2023-05-05T05:19:31.776Z,100939.44
2023-05-05T05:22:34.972Z,100940.94
2023-05-05T05:25:38.001Z,100921.56
2023-05-05T05:28:41.878Z,100941.44
2023-05-05T05:31:44.623Z,100945.22
2023-05-05T05:34:47.884Z,100948.38
2023-05-05T05:37:52.665Z,100955.34
2023-05-05T05:40:55.731Z,100953.06
2023-05-05T05:43:58.884Z,100954.78
2023-05-05T05:47:01.532Z,100957.25
2023-05-05T05:50:05.214Z,100959.88
2023-05-05T05:53:07.772Z,100957.50
2023-05-05T05:56:10.530Z,100963.13
2023-05-05T05:59:13.402Z,100948.13
2023-05-05T06:02:16.690Z,100945.16
2023-05-05T06:05:19.643Z,100944.28
2023-05-05T06:08:24.829Z,100945.91
2023-05-05T06:11:28.025Z,100953.00
2023-05-05T06:14:30.594Z,100968.13
2023-05-05T06:17:33.952Z,100965.97
2023-05-05T06:20:36.515Z,100966.00
2023-05-05T06:23:39.587Z,100949.28
2023-05-05T06:26:42.172Z,100956.34
2023-05-05T06:29:44.889Z,100951.56
2023-05-05T06:32:47.398Z,100950.81
2023-05-05T06:35:52.085Z,100938.28
2023-05-05T06:38:54.578Z,100934.31
2023-05-05T06:41:57.315Z,100949.88
2023-05-05T06:44:59.739Z,100946.75
2023-05-05T06:48:02.395Z,100940.97
2023-05-05T06:51:04.956Z,100928.37
2023-05-05T06:54:07.717Z,100948.41
2023-05-05T06:57:10.043Z,100932.31
2023-05-05T07:00:14.027Z,100931.25
2023-05-05T07:03:16.432Z,100938.00
2023-05-05T07:06:19.116Z,100942.72
2023-05-05T07:09:21.565Z,100938.16
2023-05-05T07:12:24.371Z,100939.75
2023-05-05T07:15:29.314Z,100921.59
2023-05-05T07:18:32.612Z,100930.78
2023-05-05T07:21:35.215Z,100944.06
2023-05-05T07:24:37.893Z,100944.06
2023-05-05T07:27:40.785Z,100930.78
2023-05-05T07:30:43.417Z,100940.47
2023-05-05T07:33:46.133Z,100934.03
2023-05-05T07:36:48.820Z,100924.63
2023-05-05T07:39:51.181Z,100929.63
2023-05-05T07:42:53.833Z,100926.91
2023-05-05T07:45:56.597Z,100922.41
2023-05-05T07:48:59.329Z,100934.47
2023-05-05T07:52:01.775Z,100933.81
2023-05-05T07:55:04.935Z,100937.69
2023-05-05T07:58:07.368Z,100941.94
2023-05-05T08:01:11.334Z,100929.16
2023-05-05T08:04:14.121Z,100928.75
2023-05-05T08:07:16.582Z,100921.69
2023-05-05T08:10:19.292Z,100933.25
2023-05-05T08:13:21.661Z,100945.34
2023-05-05T08:16:24.442Z,100929.69
2023-05-05T08:19:29.600Z,100934.97
2023-05-05T08:22:32.810Z,100911.16
2023-05-05T08:25:35.426Z,100924.06
2023-05-05T08:28:38.131Z,100924.25
2023-05-05T08:31:40.518Z,100932.37
2023-05-05T08:34:43.394Z,100928.50
2023-05-05T08:37:46.222Z,100911.69
2023-05-05T08:40:51.862Z,100912.00
2023-05-05T08:43:54.626Z,100921.44
2023-05-05T08:46:59.403Z,100928.63
2023-05-05T08:50:02.411Z,100908.81
2023-05-05T08:53:41.407Z,100924.63
2023-05-05T08:56:46.854Z,100922.31
2023-05-05T08:59:50.142Z,100914.97
2023-05-05T09:02:54.610Z,100923.31
2023-05-05T09:05:58.029Z,100916.72
2023-05-05T09:09:01.091Z,100917.53
2023-05-05T09:12:03.909Z,100914.34
2023-05-05T09:15:11.674Z,100897.13
2023-05-05T09:18:14.537Z,100903.97
2023-05-05T09:21:24.911Z,100907.66
2023-05-05T09:24:27.648Z,100901.28
2023-05-05T09:27:30.480Z,100884.72
2023-05-05T09:30:34.702Z,100895.50
2023-05-05T09:33:37.757Z,100860.78
2023-05-05T09:36:44.391Z,100889.91
2023-05-05T09:39:54.475Z,100883.19
2023-05-05T09:43:06.875Z,100866.47
2023-05-05T09:46:09.325Z,100870.22
2023-05-05T09:49:19.448Z,100870.53
2023-05-05T09:52:21.947Z,100869.81
2023-05-05T09:55:25.651Z,100877.37
2023-05-05T09:58:30.164Z,100864.75
2023-05-05T10:01:32.860Z,100854.03
2023-05-05T10:04:36.144Z,100872.41
2023-05-05T10:07:41.095Z,100868.47
2023-05-05T10:10:52.079Z,100866.06
2023-05-05T10:13:54.634Z,100854.88
2023-05-05T10:17:00.340Z,100843.59
2023-05-05T10:20:04.049Z,100846.00
2023-05-05T10:23:10.712Z,100852.16
2023-05-05T10:26:15.449Z,100856.66
2023-05-05T10:29:31.475Z,100856.47
2023-05-05T10:36:29.685Z,100849.78
2023-05-05T10:39:34.422Z,100819.91
2023-05-05T10:42:40.184Z,100838.84
2023-05-05T10:45:43.518Z,100810.31
2023-05-05T10:49:14.007Z,100823.72
2023-05-05T10:52:28.351Z,100815.69
2023-05-05T10:55:57.258Z,100817.44
2023-05-05T10:59:00.614Z,100818.97
2023-05-05T11:02:26.964Z,100804.69
2023-05-05T11:05:29.524Z,100796.13
2023-05-05T11:08:33.839Z,100797.66
2023-05-05T11:12:09.034Z,100795.38
2023-05-05T11:15:26.814Z,100783.47
2023-05-05T11:18:40.234Z,100787.75
2023-05-05T11:22:01.981Z,100786.50
2023-05-05T11:25:35.933Z,100767.47
2023-05-05T11:29:08.493Z,100774.62
2023-05-05T11:32:12.144Z,100781.22
2023-05-05T11:35:15.569Z,100776.53
2023-05-05T11:38:22.262Z,100757.78
2023-05-05T11:41:34.084Z,100760.38
2023-05-05T11:44:36.603Z,100763.69
2023-05-05T11:47:39.649Z,100760.38
2023-05-05T11:50:42.182Z,100761.56
2023-05-05T11:53:49.357Z,100755.69
2023-05-05T11:56:53.524Z,100747.91
2023-05-05T12:00:01.781Z,100733.41
2023-05-05T12:03:07.077Z,100751.12
2023-05-05T12:06:09.884Z,100738.69
2023-05-05T12:09:20.604Z,100738.34
2023-05-05T12:12:37.306Z,100725.63
2023-05-05T12:15:39.806Z,100731.78
2023-05-05T12:18:42.907Z,100718.28
2023-05-05T12:21:45.734Z,100735.81
2023-05-05T12:25:05.690Z,100711.47
2023-05-05T12:28:09.454Z,100728.59
2023-05-05T12:31:12.513Z,100732.63
2023-05-05T12:34:15.950Z,100718.00
2023-05-05T12:37:19.222Z,100720.78
2023-05-05T12:40:47.352Z,100710.47
2023-05-05T12:43:58.436Z,100719.63
2023-05-05T12:47:01.629Z,100711.13
2023-05-05T12:50:04.579Z,100707.06
2023-05-05T12:53:06.956Z,100712.34
2023-05-05T12:56:34.860Z,100706.09
2023-05-05T12:59:37.229Z,100697.66
2023-05-05T13:02:40.051Z,100693.91
2023-05-05T13:05:42.721Z,100693.28
2023-05-05T13:08:45.446Z,100685.78
2023-05-05T13:11:47.756Z,100678.88
2023-05-05T13:14:50.436Z,100678.81
2023-05-05T13:18:00.417Z,100670.44
2023-05-05T13:21:03.115Z,100655.44
2023-05-05T13:24:23.055Z,100661.84
2023-05-05T13:27:28.704Z,100651.09
2023-05-05T13:30:31.080Z,100653.94
2023-05-05T13:33:34.817Z,100650.91
2023-05-05T13:36:37.675Z,100642.72
2023-05-05T13:39:40.481Z,100629.16
2023-05-05T13:42:42.930Z,100629.34
2023-05-05T13:45:45.974Z,100633.69
2023-05-05T13:48:48.739Z,100627.19
2023-05-05T13:51:51.411Z,100616.25
2023-05-05T13:54:53.691Z,100623.91
2023-05-05T13:57:56.428Z,100626.97
2023-05-05T14:00:58.792Z,100616.78
2023-05-05T14:04:04.453Z,100614.38
2023-05-05T14:07:07.943Z,100631.25
2023-05-05T14:10:10.910Z,100622.50
2023-05-05T14:13:15.514Z,100622.97
2023-05-05T14:16:18.310Z,100616.28
2023-05-05T14:19:20.701Z,100599.25
2023-05-05T14:22:23.593Z,100619.47
2023-05-05T14:25:25.996Z,100611.84
2023-05-05T14:28:28.698Z,100601.34
2023-05-05T14:31:31.067Z,100607.75
2023-05-05T14:34:33.781Z,100609.87
2023-05-05T14:37:36.134Z,100609.72
2023-05-05T14:40:39.304Z,100588.16
2023-05-05T14:43:41.978Z,100599.56
2023-05-05T14:46:46.181Z,100602.25
2023-05-05T14:49:48.941Z,100592.38
2023-05-05T14:52:51.635Z,100591.28
2023-05-05T14:55:53.933Z,100589.59
2023-05-05T14:58:56.556Z,100587.47
2023-05-05T15:01:59.191Z,100599.84
2023-05-05T15:05:02.181Z,100577.59
2023-05-05T15:08:04.768Z,100581.88
2023-05-05T15:11:07.414Z,100576.63
2023-05-05T15:14:09.729Z,100590.31
2023-05-05T15:17:12.340Z,100590.00
2023-05-05T15:20:14.966Z,100583.38
2023-05-05T15:23:17.731Z,100593.63
2023-05-05T15:26:20.123Z,100594.13
2023-05-05T15:29:22.898Z,100595.44
2023-05-05T15:32:25.381Z,100582.72
2023-05-05T15:35:28.164Z,100573.41
2023-05-05T15:38:30.630Z,100592.47
2023-05-05T15:41:36.510Z,100585.63
2023-05-05T15:44:39.020Z,100569.59
2023-05-05T15:47:41.809Z,100573.72
2023-05-05T15:50:44.230Z,100569.63
2023-05-05T15:53:47.263Z,100570.34
2023-05-05T15:56:49.734Z,100558.19
2023-05-05T15:59:53.120Z,100559.59
2023-05-05T16:02:56.126Z,100573.31
2023-05-05T16:05:58.861Z,100552.97
2023-05-05T16:09:01.346Z,100551.22
2023-05-05T16:12:04.402Z,100563.13
2023-05-05T16:15:07.488Z,100551.34
2023-05-05T16:18:10.576Z,100540.25
2023-05-05T16:21:12.993Z,100555.25
2023-05-05T16:24:16.675Z,100558.00
2023-05-05T16:27:19.036Z,100556.66
2023-05-05T16:30:21.645Z,100551.47
2023-05-05T16:33:24.735Z,100555.72
2023-05-05T16:36:27.929Z,100552.81
2023-05-05T16:39:30.774Z,100546.66
2023-05-05T16:42:33.522Z,100538.91
2023-05-05T16:45:35.873Z,100555.91
2023-05-05T16:48:38.560Z,100556.91
2023-05-05T16:51:40.939Z,100544.03
2023-05-05T16:54:43.654Z,100559.06
2023-05-05T16:57:47.249Z,100558.47
2023-05-05T17:00:50.871Z,100559.19
2023-05-05T17:03:55.352Z,100559.00
2023-05-05T17:06:58.047Z,100562.59
2023-05-05T17:10:00.338Z,100557.22
2023-05-05T17:13:03.071Z,100548.81
2023-05-05T17:16:05.729Z,100538.59
2023-05-05T17:19:08.505Z,100554.69
2023-05-05T17:22:11.015Z,100555.47
2023-05-05T17:25:13.786Z,100543.34
2023-05-05T17:28:17.301Z,100552.28
2023-05-05T17:31:19.940Z,100549.75
2023-05-05T17:34:22.302Z,100549.22
2023-05-05T17:37:25.090Z,100552.75
2023-05-05T17:40:27.472Z,100541.25
2023-05-05T17:43:30.116Z,100557.50
2023-05-05T17:46:32.538Z,100557.78
2023-05-05T17:49:35.148Z,100562.09
2023-05-05T17:52:38.010Z,100554.31
2023-05-05T17:55:44.893Z,100560.22
2023-05-05T17:58:48.225Z,100557.59
2023-05-05T18:01:51.188Z,100561.16
2023-05-05T18:04:53.944Z,100563.88
2023-05-05T18:07:56.329Z,100562.16
2023-05-05T18:10:58.908Z,100548.84
2023-05-05T18:14:01.438Z,100557.22
2023-05-05T18:17:04.800Z,100552.69
2023-05-05T18:20:07.782Z,100572.19
2023-05-05T18:23:11.236Z,100568.00
2023-05-05T18:26:13.619Z,100558.44
2023-05-05T18:29:17.418Z,100574.91
2023-05-05T18:32:20.068Z,100559.37
2023-05-05T18:35:23.567Z,100583.19
2023-05-05T18:38:26.014Z,100581.81
2023-05-05T18:41:28.645Z,100577.47
2023-05-05T18:44:32.809Z,100570.84
2023-05-05T18:47:37.566Z,100590.50
2023-05-05T18:50:39.936Z,100575.03
2023-05-05T18:53:42.652Z,100594.66
2023-05-05T18:56:44.987Z,100590.72
2023-05-05T18:59:47.664Z,100596.50
2023-05-05T19:02:50.099Z,100602.50
2023-05-05T19:05:52.872Z,100601.56
2023-05-05T19:08:56.642Z,100589.59
2023-05-05T19:11:59.432Z,100601.09
2023-05-05T19:15:01.991Z,100593.81
2023-05-05T19:18:06.408Z,100605.22
2023-05-05T19:21:08.999Z,100603.22
2023-05-05T19:24:11.779Z,100606.63
2023-05-05T19:27:16.578Z,100612.84
2023-05-05T19:30:19.594Z,100614.03
2023-05-05T19:33:22.489Z,100588.91
2023-05-05T19:36:25.994Z,100598.28
2023-05-05T19:39:28.353Z,100594.75
2023-05-05T19:42:30.989Z,100594.16
2023-05-05T19:45:33.894Z,100612.47
2023-05-05T19:48:37.166Z,100603.78
2023-05-05T19:51:39.619Z,100589.78
2023-05-05T19:54:43.494Z,100610.22
2023-05-05T19:57:45.908Z,100594.25
2023-05-05T20:00:48.652Z,100609.72
2023-05-05T20:03:54.459Z,100593.66
2023-05-05T20:06:57.342Z,100608.31
2023-05-05T20:10:00.818Z,100604.56
2023-05-05T20:13:03.355Z,100602.91
2023-05-05T20:16:07.456Z,100600.75
2023-05-05T20:19:10.014Z,100607.78
2023-05-05T20:22:12.701Z,100594.34
2023-05-05T20:25:18.752Z,100605.50
2023-05-05T20:28:21.442Z,100594.03
2023-05-05T20:31:23.901Z,100610.09
2023-05-05T20:34:27.704Z,100604.19
2023-05-05T20:37:30.343Z,100601.00
2023-05-05T20:40:33.630Z,100596.75
2023-05-05T20:43:36.874Z,100591.06
2023-05-05T20:46:39.679Z,100586.19
2023-05-05T20:49:42.153Z,100605.66
2023-05-05T20:52:44.892Z,100597.97
2023-05-05T20:55:47.242Z,100604.50
2023-05-05T20:58:50.148Z,100608.66
2023-05-05T21:01:52.541Z,100605.38
2023-05-05T21:04:58.467Z,100586.41
2023-05-05T21:08:01.334Z,100585.63
2023-05-05T21:11:08.884Z,100595.88
2023-05-05T21:14:11.320Z,100580.88
2023-05-05T21:17:14.112Z,100599.84
2023-05-05T21:20:17.009Z,100597.38
2023-05-05T21:23:19.659Z,100591.06
2023-05-05T21:26:22.148Z,100582.25
2023-05-05T21:29:24.827Z,100593.03
2023-05-05T21:32:27.376Z,100589.63
2023-05-05T21:35:30.120Z,100590.63
2023-05-05T21:38:32.596Z,100569.75
2023-05-05T21:41:51.942Z,100585.41
2023-05-05T21:45:03.705Z,100578.19
2023-05-05T21:48:22.777Z,100576.53
2023-05-05T21:51:37.711Z,100577.34
2023-05-05T21:54:40.890Z,100551.31
2023-05-05T21:57:43.318Z,100548.34
2023-05-05T22:00:49.494Z,100563.19
2023-05-05T22:03:52.351Z,100563.34
2023-05-05T22:06:54.799Z,100569.31
2023-05-05T22:09:57.443Z,100550.00
2023-05-05T22:12:59.960Z,100562.06
2023-05-05T22:16:02.759Z,100568.34
2023-05-05T22:19:05.099Z,100570.00
2023-05-05T22:22:07.876Z,100565.56
2023-05-05T22:25:10.416Z,100572.34
2023-05-05T22:28:13.226Z,100568.84
2023-05-05T22:31:16.524Z,100561.12
2023-05-05T22:34:20.464Z,100573.97
2023-05-05T22:37:23.517Z,100564.94
2023-05-05T22:40:26.173Z,100565.78
2023-05-05T22:43:28.496Z,100587.56
2023-05-05T22:46:31.208Z,100582.94
2023-05-05T22:49:33.718Z,100593.03
2023-05-05T22:52:36.622Z,100587.91
2023-05-05T22:55:38.898Z,100595.69
2023-05-05T22:58:41.538Z,100588.44
2023-05-05T23:01:43.960Z,100571.25
2023-05-05T23:04:46.666Z,100589.41
2023-05-05T23:07:49.021Z,100593.84
2023-05-05T23:10:51.669Z,100590.41
2023-05-05T23:13:54.115Z,100569.78
2023-05-05T23:16:56.867Z,100576.03
2023-05-05T23:19:59.417Z,100571.78
2023-05-05T23:23:02.108Z,100581.50
2023-05-05T23:26:04.493Z,100580.34
2023-05-05T23:29:07.148Z,100580.66
2023-05-05T23:32:09.462Z,100569.78
2023-05-05T23:35:12.511Z,100578.84
2023-05-05T23:38:14.912Z,100576.72
2023-05-05T23:41:18.915Z,100565.34
2023-05-05T23:44:21.250Z,100567.50
2023-05-05T23:47:24.005Z,100567.62
2023-05-05T23:50:27.815Z,100567.66
2023-05-05T23:53:30.542Z,100576.37
2023-05-05T23:56:32.910Z,100558.50
2023-05-05T23:59:35.622Z,100559.00
